sensor_id;sensor_type;location;lat;lon;timestamp;P1;P2;P0
27143;PMS1003;14672;50.250;8.312;2022-12-18T00:01:04;52.80;44.00;21.20
27143;PMS1003;14672;50.250;8.312;2022-12-18T00:03:58;44.80;38.80;17.20
27143;PMS1003;14672;50.250;8.312;2022-12-18T00:06:26;40.80;34.40;16.80
27143;PMS1003;14672;50.250;8.312;2022-12-18T00:08:54;38.40;33.60;16.80
27143;PMS1003;14672;50.250;8.312;2022-12-18T00:11:23;36.00;33.60;17.60
27143;PMS1003;14672;50.250;8.312;2022-12-18T00:13:53;38.00;31.60;14.40
27143;PMS1003;14672;50.250;8.312;2022-12-18T00:16:22;37.60;30.40;14.80
27143;PMS1003;14672;50.250;8.312;2022-12-18T00:18:50;41.60;33.60;16.00
27143;PMS1003;14672;50.250;8.312;2022-12-18T00:21:19;35.20;34.00;18.00
27143;PMS1003;14672;50.250;8.312;2022-12-18T00:23:46;39.60;34.40;18.00
27143;PMS1003;14672;50.250;8.312;2022-12-18T00:26:18;46.00;38.00;18.80
27143;PMS1003;14672;50.250;8.312;2022-12-18T00:28:50;44.40;37.60;16.00
27143;PMS1003;14672;50.250;8.312;2022-12-18T00:31:18;36.00;31.60;18.00
27143;PMS1003;14672;50.250;8.312;2022-12-18T00:33:47;37.20;30.80;12.40
27143;PMS1003;14672;50.250;8.312;2022-12-18T00:36:15;33.60;30.80;17.20
27143;PMS1003;14672;50.250;8.312;2022-12-18T00:38:45;42.80;41.60;17.20
27143;PMS1003;14672;50.250;8.312;2022-12-18T00:41:13;34.40;29.20;13.60
27143;PMS1003;14672;50.250;8.312;2022-12-18T00:44:04;30.00;24.00;12.80
27143;PMS1003;14672;50.250;8.312;2022-12-18T00:46:31;38.80;32.00;16.40
27143;PMS1003;14672;50.250;8.312;2022-12-18T00:48:57;28.80;27.20;14.00
27143;PMS1003;14672;50.250;8.312;2022-12-18T00:51:23;34.40;33.60;18.00
27143;PMS1003;14672;50.250;8.312;2022-12-18T00:53:49;43.60;36.40;15.20
27143;PMS1003;14672;50.250;8.312;2022-12-18T00:56:15;41.20;38.40;22.80
27143;PMS1003;14672;50.250;8.312;2022-12-18T00:58:41;37.00;35.50;18.50
27143;PMS1003;14672;50.250;8.312;2022-12-18T01:01:07;34.00;30.00;13.50
27143;PMS1003;14672;50.250;8.312;2022-12-18T01:03:33;27.60;25.20;12.80
27143;PMS1003;14672;50.250;8.312;2022-12-18T01:06:04;40.40;38.40;19.20
27143;PMS1003;14672;50.250;8.312;2022-12-18T01:08:36;36.00;28.80;16.80
27143;PMS1003;14672;50.250;8.312;2022-12-18T01:11:13;37.20;34.80;16.80
27143;PMS1003;14672;50.250;8.312;2022-12-18T01:13:42;36.40;32.80;14.00
27143;PMS1003;14672;50.250;8.312;2022-12-18T01:16:10;44.80;38.80;16.40
27143;PMS1003;14672;50.250;8.312;2022-12-18T01:18:38;37.60;31.60;14.80
27143;PMS1003;14672;50.250;8.312;2022-12-18T01:21:08;41.60;36.40;13.60
27143;PMS1003;14672;50.250;8.312;2022-12-18T01:23:36;33.60;30.80;15.60
27143;PMS1003;14672;50.250;8.312;2022-12-18T01:26:06;32.40;30.80;18.00
27143;PMS1003;14672;50.250;8.312;2022-12-18T01:28:39;34.00;32.40;17.60
27143;PMS1003;14672;50.250;8.312;2022-12-18T01:31:25;37.20;31.60;14.00
27143;PMS1003;14672;50.250;8.312;2022-12-18T01:33:54;26.80;26.40;12.80
27143;PMS1003;14672;50.250;8.312;2022-12-18T01:36:25;30.00;27.60;14.40
27143;PMS1003;14672;50.250;8.312;2022-12-18T01:39:00;48.80;41.20;12.80
27143;PMS1003;14672;50.250;8.312;2022-12-18T01:41:31;29.20;26.80;12.40
27143;PMS1003;14672;50.250;8.312;2022-12-18T01:47:33;30.80;28.00;12.40
27143;PMS1003;14672;50.250;8.312;2022-12-18T01:50:13;30.80;28.40;13.20
27143;PMS1003;14672;50.250;8.312;2022-12-18T01:52:49;30.40;27.20;12.00
27143;PMS1003;14672;50.250;8.312;2022-12-18T01:55:28;37.20;28.40;10.00
27143;PMS1003;14672;50.250;8.312;2022-12-18T01:57:59;38.80;30.40;13.20
27143;PMS1003;14672;50.250;8.312;2022-12-18T02:00:26;38.80;35.60;19.60
27143;PMS1003;14672;50.250;8.312;2022-12-18T02:02:53;42.40;33.60;14.80
27143;PMS1003;14672;50.250;8.312;2022-12-18T02:05:25;42.00;33.60;16.80
27143;PMS1003;14672;50.250;8.312;2022-12-18T02:08:21;30.40;29.20;14.00
27143;PMS1003;14672;50.250;8.312;2022-12-18T02:10:57;34.80;32.00;14.00
27143;PMS1003;14672;50.250;8.312;2022-12-18T02:23:04;34.40;30.80;11.60
27143;PMS1003;14672;50.250;8.312;2022-12-18T02:28:30;35.20;27.60;12.40
27143;PMS1003;14672;50.250;8.312;2022-12-18T02:31:04;39.20;35.20;14.00
27143;PMS1003;14672;50.250;8.312;2022-12-18T02:33:36;27.60;26.40;14.00
27143;PMS1003;14672;50.250;8.312;2022-12-18T02:36:04;30.80;29.60;16.40
27143;PMS1003;14672;50.250;8.312;2022-12-18T02:38:32;40.40;33.60;14.00
27143;PMS1003;14672;50.250;8.312;2022-12-18T02:40:59;37.60;29.60;14.80
27143;PMS1003;14672;50.250;8.312;2022-12-18T02:43:27;32.40;26.80;10.40
27143;PMS1003;14672;50.250;8.312;2022-12-18T02:45:56;31.20;28.80;12.00
27143;PMS1003;14672;50.250;8.312;2022-12-18T02:48:29;40.40;38.40;16.00
27143;PMS1003;14672;50.250;8.312;2022-12-18T02:53:51;31.60;30.00;15.20
27143;PMS1003;14672;50.250;8.312;2022-12-18T02:56:51;33.60;28.80;11.20
27143;PMS1003;14672;50.250;8.312;2022-12-18T02:59:26;35.60;28.00;13.60
27143;PMS1003;14672;50.250;8.312;2022-12-18T03:05:35;25.20;22.40;10.80
27143;PMS1003;14672;50.250;8.312;2022-12-18T03:08:22;30.00;28.80;14.40
27143;PMS1003;14672;50.250;8.312;2022-12-18T03:10:55;33.60;30.00;14.00
27143;PMS1003;14672;50.250;8.312;2022-12-18T03:16:20;24.40;24.40;12.80
27143;PMS1003;14672;50.250;8.312;2022-12-18T03:18:56;28.00;26.40;10.80
27143;PMS1003;14672;50.250;8.312;2022-12-18T03:21:30;32.80;27.60;12.40
27143;PMS1003;14672;50.250;8.312;2022-12-18T03:24:04;24.00;22.80;11.60
27143;PMS1003;14672;50.250;8.312;2022-12-18T03:26:33;30.00;28.40;12.00
27143;PMS1003;14672;50.250;8.312;2022-12-18T03:29:04;21.60;20.00;8.00
27143;PMS1003;14672;50.250;8.312;2022-12-18T03:31:37;24.40;23.60;13.20
27143;PMS1003;14672;50.250;8.312;2022-12-18T03:34:15;27.20;25.20;12.00
27143;PMS1003;14672;50.250;8.312;2022-12-18T03:36:48;32.00;25.60;13.20
27143;PMS1003;14672;50.250;8.312;2022-12-18T03:39:14;29.60;26.00;10.00
27143;PMS1003;14672;50.250;8.312;2022-12-18T03:41:44;28.80;26.00;9.60
27143;PMS1003;14672;50.250;8.312;2022-12-18T03:52:57;31.20;29.60;10.00
27143;PMS1003;14672;50.250;8.312;2022-12-18T03:55:29;34.40;29.20;13.60
27143;PMS1003;14672;50.250;8.312;2022-12-18T03:57:59;31.60;31.60;14.40
27143;PMS1003;14672;50.250;8.312;2022-12-18T04:00:27;35.20;30.80;14.00
27143;PMS1003;14672;50.250;8.312;2022-12-18T04:02:55;35.20;28.40;16.00
27143;PMS1003;14672;50.250;8.312;2022-12-18T04:05:25;30.80;28.00;12.00
27143;PMS1003;14672;50.250;8.312;2022-12-18T04:07:53;30.00;26.80;13.60
27143;PMS1003;14672;50.250;8.312;2022-12-18T04:10:21;25.20;22.40;9.60
27143;PMS1003;14672;50.250;8.312;2022-12-18T04:12:47;32.00;30.00;13.20
27143;PMS1003;14672;50.250;8.312;2022-12-18T04:15:13;31.00;26.00;13.50
27143;PMS1003;14672;50.250;8.312;2022-12-18T04:17:39;27.00;21.50;11.50
27143;PMS1003;14672;50.250;8.312;2022-12-18T04:20:13;25.60;24.80;14.40
27143;PMS1003;14672;50.250;8.312;2022-12-18T04:22:39;22.40;21.20;11.20
27143;PMS1003;14672;50.250;8.312;2022-12-18T04:25:06;32.00;27.60;12.40
27143;PMS1003;14672;50.250;8.312;2022-12-18T04:27:36;26.80;24.80;12.00
27143;PMS1003;14672;50.250;8.312;2022-12-18T04:30:02;25.50;24.50;11.50
27143;PMS1003;14672;50.250;8.312;2022-12-18T04:32:28;37.20;32.40;18.00
27143;PMS1003;14672;50.250;8.312;2022-12-18T04:34:54;29.00;24.50;9.50
27143;PMS1003;14672;50.250;8.312;2022-12-18T04:37:20;27.00;22.00;10.00
27143;PMS1003;14672;50.250;8.312;2022-12-18T04:39:45;26.50;24.00;11.50
27143;PMS1003;14672;50.250;8.312;2022-12-18T04:42:11;22.50;22.00;12.50
27143;PMS1003;14672;50.250;8.312;2022-12-18T04:44:37;30.00;24.00;11.00
27143;PMS1003;14672;50.250;8.312;2022-12-18T04:47:03;23.50;23.00;10.00
27143;PMS1003;14672;50.250;8.312;2022-12-18T04:49:28;29.00;22.50;10.00
27143;PMS1003;14672;50.250;8.312;2022-12-18T04:51:54;22.50;22.50;14.00
27143;PMS1003;14672;50.250;8.312;2022-12-18T04:54:20;26.50;24.50;12.00
27143;PMS1003;14672;50.250;8.312;2022-12-18T04:56:46;29.50;28.00;14.00
27143;PMS1003;14672;50.250;8.312;2022-12-18T04:59:12;32.80;28.40;13.20
27143;PMS1003;14672;50.250;8.312;2022-12-18T05:01:38;23.50;23.50;10.00
27143;PMS1003;14672;50.250;8.312;2022-12-18T05:04:03;30.00;25.00;13.00
27143;PMS1003;14672;50.250;8.312;2022-12-18T05:06:29;30.00;28.50;12.00
27143;PMS1003;14672;50.250;8.312;2022-12-18T05:08:56;27.20;24.00;10.80
27143;PMS1003;14672;50.250;8.312;2022-12-18T05:11:22;25.50;24.00;11.50
27143;PMS1003;14672;50.250;8.312;2022-12-18T05:13:47;24.50;23.00;12.00
27143;PMS1003;14672;50.250;8.312;2022-12-18T05:16:13;18.00;18.00;8.00
27143;PMS1003;14672;50.250;8.312;2022-12-18T05:18:40;30.40;28.00;10.80
27143;PMS1003;14672;50.250;8.312;2022-12-18T05:21:06;28.80;25.20;12.00
27143;PMS1003;14672;50.250;8.312;2022-12-18T05:23:35;23.60;22.80;12.00
27143;PMS1003;14672;50.250;8.312;2022-12-18T05:26:02;26.40;26.40;11.20
27143;PMS1003;14672;50.250;8.312;2022-12-18T05:28:32;28.80;22.80;10.80
27143;PMS1003;14672;50.250;8.312;2022-12-18T05:31:00;22.00;22.00;12.40
27143;PMS1003;14672;50.250;8.312;2022-12-18T05:33:31;36.00;30.80;13.20
27143;PMS1003;14672;50.250;8.312;2022-12-18T05:36:03;23.20;21.20;11.60
27143;PMS1003;14672;50.250;8.312;2022-12-18T05:38:32;26.80;25.60;13.60
27143;PMS1003;14672;50.250;8.312;2022-12-18T05:41:01;30.00;23.60;10.00
27143;PMS1003;14672;50.250;8.312;2022-12-18T05:43:28;26.40;21.20;12.00
27143;PMS1003;14672;50.250;8.312;2022-12-18T05:45:54;24.40;23.20;10.00
27143;PMS1003;14672;50.250;8.312;2022-12-18T05:48:21;29.60;29.60;13.60
27143;PMS1003;14672;50.250;8.312;2022-12-18T05:50:48;31.60;26.40;12.40
27143;PMS1003;14672;50.250;8.312;2022-12-18T05:53:17;38.80;33.60;16.40
27143;PMS1003;14672;50.250;8.312;2022-12-18T05:55:45;38.40;31.60;14.80
27143;PMS1003;14672;50.250;8.312;2022-12-18T05:58:12;31.60;31.60;16.80
27143;PMS1003;14672;50.250;8.312;2022-12-18T06:00:40;28.40;25.20;15.60
27143;PMS1003;14672;50.250;8.312;2022-12-18T06:03:10;37.60;31.60;14.00
27143;PMS1003;14672;50.250;8.312;2022-12-18T06:05:37;26.80;24.00;12.00
27143;PMS1003;14672;50.250;8.312;2022-12-18T06:08:09;30.40;27.20;11.60
27143;PMS1003;14672;50.250;8.312;2022-12-18T06:10:36;34.40;27.60;11.60
27143;PMS1003;14672;50.250;8.312;2022-12-18T06:13:02;29.20;23.20;10.00
27143;PMS1003;14672;50.250;8.312;2022-12-18T06:15:29;29.60;27.20;14.00
27143;PMS1003;14672;50.250;8.312;2022-12-18T06:17:55;25.50;22.00;8.50
27143;PMS1003;14672;50.250;8.312;2022-12-18T06:20:20;31.50;29.50;11.00
27143;PMS1003;14672;50.250;8.312;2022-12-18T06:22:47;24.00;23.60;11.20
27143;PMS1003;14672;50.250;8.312;2022-12-18T06:25:12;31.00;27.00;13.00
27143;PMS1003;14672;50.250;8.312;2022-12-18T06:27:39;25.20;20.80;11.20
27143;PMS1003;14672;50.250;8.312;2022-12-18T06:30:05;30.40;28.00;14.80
27143;PMS1003;14672;50.250;8.312;2022-12-18T06:32:32;34.00;28.80;14.00
27143;PMS1003;14672;50.250;8.312;2022-12-18T06:34:57;35.00;31.00;14.00
27143;PMS1003;14672;50.250;8.312;2022-12-18T06:37:24;32.40;24.00;10.40
27143;PMS1003;14672;50.250;8.312;2022-12-18T06:39:51;27.60;26.00;10.80
27143;PMS1003;14672;50.250;8.312;2022-12-18T06:42:21;29.20;27.20;13.20
27143;PMS1003;14672;50.250;8.312;2022-12-18T06:44:48;36.00;28.40;12.00
27143;PMS1003;14672;50.250;8.312;2022-12-18T06:47:13;25.50;23.50;10.00
27143;PMS1003;14672;50.250;8.312;2022-12-18T06:49:39;21.50;21.00;9.00
27143;PMS1003;14672;50.250;8.312;2022-12-18T06:52:05;26.50;26.50;10.50
27143;PMS1003;14672;50.250;8.312;2022-12-18T06:54:31;35.00;33.50;17.50
27143;PMS1003;14672;50.250;8.312;2022-12-18T06:56:56;35.50;28.00;14.50
27143;PMS1003;14672;50.250;8.312;2022-12-18T06:59:22;21.50;20.50;12.00
27143;PMS1003;14672;50.250;8.312;2022-12-18T07:01:48;29.50;23.50;10.00
27143;PMS1003;14672;50.250;8.312;2022-12-18T07:04:14;27.50;26.50;12.50
27143;PMS1003;14672;50.250;8.312;2022-12-18T07:06:39;39.50;32.50;14.50
27143;PMS1003;14672;50.250;8.312;2022-12-18T07:09:05;36.50;32.50;13.50
27143;PMS1003;14672;50.250;8.312;2022-12-18T07:11:34;20.00;20.00;10.50
27143;PMS1003;14672;50.250;8.312;2022-12-18T07:14:00;34.00;30.80;13.20
27143;PMS1003;14672;50.250;8.312;2022-12-18T07:16:25;30.00;28.00;15.00
27143;PMS1003;14672;50.250;8.312;2022-12-18T07:18:56;26.80;25.20;15.20
27143;PMS1003;14672;50.250;8.312;2022-12-18T07:21:22;32.40;27.60;14.40
27143;PMS1003;14672;50.250;8.312;2022-12-18T07:23:50;29.60;27.60;15.60
27143;PMS1003;14672;50.250;8.312;2022-12-18T07:26:17;32.00;26.00;15.50
27143;PMS1003;14672;50.250;8.312;2022-12-18T07:28:44;34.40;29.60;13.60
27143;PMS1003;14672;50.250;8.312;2022-12-18T07:31:12;26.40;24.80;13.20
27143;PMS1003;14672;50.250;8.312;2022-12-18T07:33:42;31.20;26.00;14.00
27143;PMS1003;14672;50.250;8.312;2022-12-18T07:36:08;34.00;32.00;14.40
27143;PMS1003;14672;50.250;8.312;2022-12-18T07:38:35;34.80;32.00;16.80
27143;PMS1003;14672;50.250;8.312;2022-12-18T07:41:05;35.20;32.00;12.80
27143;PMS1003;14672;50.250;8.312;2022-12-18T07:43:37;30.40;27.60;14.80
27143;PMS1003;14672;50.250;8.312;2022-12-18T07:46:05;28.00;25.20;13.60
27143;PMS1003;14672;50.250;8.312;2022-12-18T07:48:32;23.20;23.20;13.60
27143;PMS1003;14672;50.250;8.312;2022-12-18T07:51:01;36.50;33.00;15.50
27143;PMS1003;14672;50.250;8.312;2022-12-18T07:53:29;23.60;23.20;10.80
27143;PMS1003;14672;50.250;8.312;2022-12-18T07:55:56;34.00;29.60;15.60
27143;PMS1003;14672;50.250;8.312;2022-12-18T07:58:24;33.60;31.20;16.40
27143;PMS1003;14672;50.250;8.312;2022-12-18T08:00:50;32.00;28.40;15.20
27143;PMS1003;14672;50.250;8.312;2022-12-18T08:03:17;35.20;26.80;10.00
27143;PMS1003;14672;50.250;8.312;2022-12-18T08:05:43;27.60;27.20;11.60
27143;PMS1003;14672;50.250;8.312;2022-12-18T08:08:09;36.50;29.00;11.50
27143;PMS1003;14672;50.250;8.312;2022-12-18T08:10:35;31.60;28.40;12.80
27143;PMS1003;14672;50.250;8.312;2022-12-18T08:13:02;29.20;27.20;11.20
27143;PMS1003;14672;50.250;8.312;2022-12-18T08:15:28;28.50;23.50;10.00
27143;PMS1003;14672;50.250;8.312;2022-12-18T08:17:56;36.00;32.00;12.50
27143;PMS1003;14672;50.250;8.312;2022-12-18T08:20:22;33.60;29.60;14.40
27143;PMS1003;14672;50.250;8.312;2022-12-18T08:22:48;34.00;32.00;16.00
27143;PMS1003;14672;50.250;8.312;2022-12-18T08:25:14;37.00;33.00;15.50
27143;PMS1003;14672;50.250;8.312;2022-12-18T08:27:39;36.50;29.50;12.00
27143;PMS1003;14672;50.250;8.312;2022-12-18T08:30:05;31.00;25.00;11.00
27143;PMS1003;14672;50.250;8.312;2022-12-18T08:32:32;32.00;27.20;14.80
27143;PMS1003;14672;50.250;8.312;2022-12-18T08:34:58;26.00;25.20;14.00
27143;PMS1003;14672;50.250;8.312;2022-12-18T08:37:24;52.40;37.60;17.20
27143;PMS1003;14672;50.250;8.312;2022-12-18T08:39:50;38.00;30.00;16.00
27143;PMS1003;14672;50.250;8.312;2022-12-18T08:42:16;42.50;34.50;13.50
27143;PMS1003;14672;50.250;8.312;2022-12-18T08:45:00;36.00;31.60;18.00
27143;PMS1003;14672;50.250;8.312;2022-12-18T08:47:27;50.00;39.20;18.00
27143;PMS1003;14672;50.250;8.312;2022-12-18T08:49:53;31.50;27.50;12.50
27143;PMS1003;14672;50.250;8.312;2022-12-18T08:52:19;34.50;31.50;16.00
27143;PMS1003;14672;50.250;8.312;2022-12-18T08:54:45;58.50;48.50;22.00
27143;PMS1003;14672;50.250;8.312;2022-12-18T08:57:11;51.00;49.50;28.00
27143;PMS1003;14672;50.250;8.312;2022-12-18T08:59:37;33.50;33.00;19.50
27143;PMS1003;14672;50.250;8.312;2022-12-18T09:02:03;51.50;50.50;21.50
27143;PMS1003;14672;50.250;8.312;2022-12-18T09:04:28;55.00;44.50;21.00
27143;PMS1003;14672;50.250;8.312;2022-12-18T09:06:55;50.00;45.50;19.50
27143;PMS1003;14672;50.250;8.312;2022-12-18T09:09:21;55.20;44.80;24.40
27143;PMS1003;14672;50.250;8.312;2022-12-18T09:11:47;47.00;45.00;22.00
27143;PMS1003;14672;50.250;8.312;2022-12-18T09:14:13;47.00;45.00;24.50
27143;PMS1003;14672;50.250;8.312;2022-12-18T09:16:39;58.00;56.50;34.00
27143;PMS1003;14672;50.250;8.312;2022-12-18T09:19:04;67.00;59.00;36.50
27143;PMS1003;14672;50.250;8.312;2022-12-18T09:21:32;60.00;51.60;27.60
27143;PMS1003;14672;50.250;8.312;2022-12-18T09:24:03;56.00;48.00;27.20
27143;PMS1003;14672;50.250;8.312;2022-12-18T09:26:29;54.00;46.40;24.00
27143;PMS1003;14672;50.250;8.312;2022-12-18T09:28:55;45.00;36.50;18.50
27143;PMS1003;14672;50.250;8.312;2022-12-18T09:31:22;32.50;31.00;16.50
27143;PMS1003;14672;50.250;8.312;2022-12-18T09:33:49;68.80;53.60;23.20
27143;PMS1003;14672;50.250;8.312;2022-12-18T09:36:16;57.60;46.80;22.80
27143;PMS1003;14672;50.250;8.312;2022-12-18T09:38:43;46.40;43.20;20.40
27143;PMS1003;14672;50.250;8.312;2022-12-18T09:43:57;57.60;53.60;28.00
27143;PMS1003;14672;50.250;8.312;2022-12-18T09:46:46;72.80;59.20;30.00
27143;PMS1003;14672;50.250;8.312;2022-12-18T09:49:43;55.20;47.20;25.60
27143;PMS1003;14672;50.250;8.312;2022-12-18T09:52:36;43.20;37.60;17.60
27143;PMS1003;14672;50.250;8.312;2022-12-18T09:55:28;36.80;32.80;16.40
27143;PMS1003;14672;50.250;8.312;2022-12-18T09:58:13;36.40;36.40;17.20
27143;PMS1003;14672;50.250;8.312;2022-12-18T10:00:53;38.40;36.40;20.40
27143;PMS1003;14672;50.250;8.312;2022-12-18T10:03:19;40.40;35.20;18.40
27143;PMS1003;14672;50.250;8.312;2022-12-18T10:05:50;38.80;38.40;20.00
27143;PMS1003;14672;50.250;8.312;2022-12-18T10:17:37;54.00;42.00;20.00
27143;PMS1003;14672;50.250;8.312;2022-12-18T10:20:38;36.00;31.50;15.00
27143;PMS1003;14672;50.250;8.312;2022-12-18T10:28:37;46.00;42.00;18.80
27143;PMS1003;14672;50.250;8.312;2022-12-18T10:31:05;40.50;39.00;18.00
27143;PMS1003;14672;50.250;8.312;2022-12-18T10:33:41;38.00;33.50;18.00
27143;PMS1003;14672;50.250;8.312;2022-12-18T10:36:08;45.00;39.00;19.50
27143;PMS1003;14672;50.250;8.312;2022-12-18T10:38:34;49.00;44.00;23.00
27143;PMS1003;14672;50.250;8.312;2022-12-18T10:43:34;54.50;43.00;20.00
27143;PMS1003;14672;50.250;8.312;2022-12-18T10:48:34;37.60;36.80;21.20
27143;PMS1003;14672;50.250;8.312;2022-12-18T10:51:22;38.80;35.60;17.60
27143;PMS1003;14672;50.250;8.312;2022-12-18T10:53:57;49.20;38.00;22.40
27143;PMS1003;14672;50.250;8.312;2022-12-18T10:56:30;55.60;49.20;25.20
27143;PMS1003;14672;50.250;8.312;2022-12-18T10:59:07;49.60;42.40;19.60
27143;PMS1003;14672;50.250;8.312;2022-12-18T11:04:50;50.80;41.20;19.20
27143;PMS1003;14672;50.250;8.312;2022-12-18T11:07:17;66.80;52.00;24.00
27143;PMS1003;14672;50.250;8.312;2022-12-18T11:09:42;53.00;42.00;24.50
27143;PMS1003;14672;50.250;8.312;2022-12-18T11:12:15;41.50;38.50;20.50
27143;PMS1003;14672;50.250;8.312;2022-12-18T11:14:51;54.00;43.20;22.00
27143;PMS1003;14672;50.250;8.312;2022-12-18T11:20:05;45.60;40.00;21.60
27143;PMS1003;14672;50.250;8.312;2022-12-18T11:22:55;57.60;49.60;22.00
27143;PMS1003;14672;50.250;8.312;2022-12-18T11:25:38;41.60;37.60;22.00
27143;PMS1003;14672;50.250;8.312;2022-12-18T11:28:05;52.00;46.00;23.20
27143;PMS1003;14672;50.250;8.312;2022-12-18T11:36:45;46.50;41.50;23.50
27143;PMS1003;14672;50.250;8.312;2022-12-18T11:42:41;65.60;58.00;27.20
27143;PMS1003;14672;50.250;8.312;2022-12-18T11:45:38;62.80;56.80;27.60
27143;PMS1003;14672;50.250;8.312;2022-12-18T11:48:30;59.20;52.40;29.60
27143;PMS1003;14672;50.250;8.312;2022-12-18T11:51:05;70.80;60.00;30.80
27143;PMS1003;14672;50.250;8.312;2022-12-18T11:53:51;63.20;57.60;30.40
27143;PMS1003;14672;50.250;8.312;2022-12-18T11:56:30;65.60;58.40;30.40
27143;PMS1003;14672;50.250;8.312;2022-12-18T12:16:34;54.80;48.40;24.80
27143;PMS1003;14672;50.250;8.312;2022-12-18T12:19:48;59.60;52.40;26.40
27143;PMS1003;14672;50.250;8.312;2022-12-18T12:22:54;57.60;50.80;24.00
27143;PMS1003;14672;50.250;8.312;2022-12-18T12:34:16;59.60;52.00;23.60
27143;PMS1003;14672;50.250;8.312;2022-12-18T12:39:40;54.80;51.60;25.60
27143;PMS1003;14672;50.250;8.312;2022-12-18T12:42:29;54.80;49.60;24.80
27143;PMS1003;14672;50.250;8.312;2022-12-18T12:45:20;64.00;56.40;26.00
27143;PMS1003;14672;50.250;8.312;2022-12-18T12:47:53;56.00;46.00;26.40
27143;PMS1003;14672;50.250;8.312;2022-12-18T12:50:22;65.60;54.80;29.20
27143;PMS1003;14672;50.250;8.312;2022-12-18T12:52:52;57.20;48.80;22.00
27143;PMS1003;14672;50.250;8.312;2022-12-18T12:55:25;62.40;46.00;24.00
27143;PMS1003;14672;50.250;8.312;2022-12-18T13:01:47;64.40;56.00;28.00
27143;PMS1003;14672;50.250;8.312;2022-12-18T13:06:22;63.00;54.00;27.50
27143;PMS1003;14672;50.250;8.312;2022-12-18T13:08:58;53.60;47.60;26.00
27143;PMS1003;14672;50.250;8.312;2022-12-18T13:11:30;49.60;44.80;22.00
27143;PMS1003;14672;50.250;8.312;2022-12-18T13:20:19;59.20;53.60;24.80
27143;PMS1003;14672;50.250;8.312;2022-12-18T13:28:04;50.80;46.80;22.80
27143;PMS1003;14672;50.250;8.312;2022-12-18T13:41:01;54.40;50.80;26.00
27143;PMS1003;14672;50.250;8.312;2022-12-18T13:43:53;58.80;46.40;25.20
27143;PMS1003;14672;50.250;8.312;2022-12-18T13:46:29;54.80;53.20;27.60
27143;PMS1003;14672;50.250;8.312;2022-12-18T13:51:39;60.80;52.00;23.20
27143;PMS1003;14672;50.250;8.312;2022-12-18T13:56:53;56.00;48.80;24.00
27143;PMS1003;14672;50.250;8.312;2022-12-18T13:59:23;48.50;43.00;21.00
27143;PMS1003;14672;50.250;8.312;2022-12-18T14:02:16;52.80;49.20;25.20
27143;PMS1003;14672;50.250;8.312;2022-12-18T14:04:47;62.80;48.40;26.00
27143;PMS1003;14672;50.250;8.312;2022-12-18T14:09:54;44.00;37.20;19.20
27143;PMS1003;14672;50.250;8.312;2022-12-18T14:12:24;48.80;43.60;23.60
27143;PMS1003;14672;50.250;8.312;2022-12-18T14:17:52;60.00;45.20;23.20
27143;PMS1003;14672;50.250;8.312;2022-12-18T14:20:25;55.20;48.00;22.80
27143;PMS1003;14672;50.250;8.312;2022-12-18T14:22:56;51.20;48.40;20.00
27143;PMS1003;14672;50.250;8.312;2022-12-18T14:25:27;62.40;52.40;26.80
27143;PMS1003;14672;50.250;8.312;2022-12-18T14:30:37;56.00;45.60;22.80
27143;PMS1003;14672;50.250;8.312;2022-12-18T14:36:02;50.00;46.00;22.80
27143;PMS1003;14672;50.250;8.312;2022-12-18T14:38:36;52.80;46.40;22.80
27143;PMS1003;14672;50.250;8.312;2022-12-18T14:41:05;67.60;44.40;22.00
27143;PMS1003;14672;50.250;8.312;2022-12-18T14:43:37;57.20;50.80;24.80
27143;PMS1003;14672;50.250;8.312;2022-12-18T14:49:03;46.00;42.00;20.40
27143;PMS1003;14672;50.250;8.312;2022-12-18T14:51:57;63.60;53.60;24.40
27143;PMS1003;14672;50.250;8.312;2022-12-18T14:54:27;58.00;50.40;24.00
27143;PMS1003;14672;50.250;8.312;2022-12-18T14:56:57;39.20;35.60;20.00
27143;PMS1003;14672;50.250;8.312;2022-12-18T14:59:27;63.20;46.00;22.40
27143;PMS1003;14672;50.250;8.312;2022-12-18T15:04:41;51.20;44.40;20.00
27143;PMS1003;14672;50.250;8.312;2022-12-18T15:07:22;46.80;39.20;14.80
27143;PMS1003;14672;50.250;8.312;2022-12-18T15:12:37;42.80;38.80;19.60
27143;PMS1003;14672;50.250;8.312;2022-12-18T15:15:52;54.00;40.00;18.00
27143;PMS1003;14672;50.250;8.312;2022-12-18T15:17:58;50.40;44.80;21.60
27143;PMS1003;14672;50.250;8.312;2022-12-18T15:20:31;45.60;42.40;20.40
27143;PMS1003;14672;50.250;8.312;2022-12-18T15:23:14;48.00;43.20;18.00
27143;PMS1003;14672;50.250;8.312;2022-12-18T15:31:22;50.00;41.60;20.00
27143;PMS1003;14672;50.250;8.312;2022-12-18T15:36:22;44.00;41.00;20.00
27143;PMS1003;14672;50.250;8.312;2022-12-18T15:38:49;50.40;44.00;24.40
27143;PMS1003;14672;50.250;8.312;2022-12-18T15:41:17;48.00;42.40;18.80
27143;PMS1003;14672;50.250;8.312;2022-12-18T15:43:46;50.80;39.60;21.20
27143;PMS1003;14672;50.250;8.312;2022-12-18T15:46:15;58.40;54.00;23.60
27143;PMS1003;14672;50.250;8.312;2022-12-18T15:48:45;43.60;39.60;20.00
27143;PMS1003;14672;50.250;8.312;2022-12-18T15:51:20;42.40;38.00;20.40
27143;PMS1003;14672;50.250;8.312;2022-12-18T15:54:03;41.20;37.60;20.00
27143;PMS1003;14672;50.250;8.312;2022-12-18T15:56:34;55.20;47.60;21.60
27143;PMS1003;14672;50.250;8.312;2022-12-18T15:59:19;46.40;41.20;22.40
27143;PMS1003;14672;50.250;8.312;2022-12-18T16:01:47;44.00;36.80;19.20
27143;PMS1003;14672;50.250;8.312;2022-12-18T16:04:16;47.60;44.80;22.40
27143;PMS1003;14672;50.250;8.312;2022-12-18T16:06:45;48.00;39.60;16.00
27143;PMS1003;14672;50.250;8.312;2022-12-18T16:09:12;45.20;41.60;22.00
27143;PMS1003;14672;50.250;8.312;2022-12-18T16:11:38;39.00;36.00;16.50
27143;PMS1003;14672;50.250;8.312;2022-12-18T16:16:45;39.20;31.60;18.00
27143;PMS1003;14672;50.250;8.312;2022-12-18T16:19:13;48.00;43.20;22.00
27143;PMS1003;14672;50.250;8.312;2022-12-18T16:21:39;51.60;44.00;17.60
27143;PMS1003;14672;50.250;8.312;2022-12-18T16:24:08;38.00;34.00;16.50
27143;PMS1003;14672;50.250;8.312;2022-12-18T16:26:41;38.80;33.60;14.80
27143;PMS1003;14672;50.250;8.312;2022-12-18T16:29:08;48.40;41.20;19.60
27143;PMS1003;14672;50.250;8.312;2022-12-18T16:31:34;48.00;41.20;18.00
27143;PMS1003;14672;50.250;8.312;2022-12-18T16:36:43;44.40;39.60;17.20
27143;PMS1003;14672;50.250;8.312;2022-12-18T16:39:09;47.50;42.50;18.00
27143;PMS1003;14672;50.250;8.312;2022-12-18T16:41:35;44.00;38.00;21.00
27143;PMS1003;14672;50.250;8.312;2022-12-18T16:44:01;50.00;43.50;20.00
27143;PMS1003;14672;50.250;8.312;2022-12-18T16:46:27;50.00;38.80;22.80
27143;PMS1003;14672;50.250;8.312;2022-12-18T16:48:54;49.20;38.80;18.80
27143;PMS1003;14672;50.250;8.312;2022-12-18T16:51:21;49.60;42.00;20.00
27143;PMS1003;14672;50.250;8.312;2022-12-18T16:53:47;49.00;41.00;21.50